Latest Weather Observations for Brisbane Airport

IDQ60801

Issued at 1:02 pm EST Saturday 1 August 2015 (issued every 30 minutes, with the page automatically refreshed every 10 minutes)

About weather observations | Map of weather stations | Latest weather observations for QLD | Other Formats
Station Details ID: 040842 Name: BRISBANE AERO Lat: -27.39 Lon: 153.13 Height: 4.51 m
Data from the previous 72 hours. | See also: Recent months at Brisbane Airport
Date/Time
EST
Temp
°C
App
Temp
°C
Dew
Point
Rel
Hum
%
Delta-T
°C
Wind Press
QNH
hPa
Press
MSL
hPa
Rain
since 9 am
mm
Dir
 
Spd
km/h
Gust
km/h
Spd
kts
Gust
kts
01/12:30pm 20.7 18.2 11.2 54 5.2 N 15 19 8 10 1022.3 - 0.0
01/12:00pm 20.7 18.3 10.1 50 5.7 N 13 17 7 9 1022.9 1022.9 0.0
01/11:30am 20.7 18.4 10.3 51 5.6 N 13 17 7 9 1023.2 - 0.0
01/11:00am 20.8 18.4 10.0 50 5.8 N 13 19 7 10 1023.6 - 0.0
01/10:30am 19.8 18.7 10.1 53 5.2 NW 6 15 3 8 1024.0 - 0.0
01/10:00am 18.5 16.8 10.0 57 4.5 SW 9 11 5 6 1024.3 - 0.0
01/09:30am 16.7 14.4 9.1 61 3.9 SSW 11 13 6 7 1024.4 - 0.0
01/09:00am 15.1 11.5 8.5 64 3.3 SSW 17 20 9 11 1024.5 1024.4 0.0
01/08:30am 13.6 10.4 8.6 72 2.5 SSW 15 19 8 10 1024.4 - 0.0
01/08:00am 12.1 9.6 8.2 77 1.9 SSW 11 15 6 8 1023.8 - 0.0
01/07:30am 10.5 7.9 7.8 83 1.3 SSW 11 13 6 7 1023.3 - 0.0
01/07:00am 9.1 5.8 6.5 84 1.2 SSW 13 15 7 8 1023.2 - 0.0
01/06:30am 8.8 5.5 6.4 85 1.1 SSW 13 15 7 8 1022.8 - 0.0
01/06:00am 9.7 6.5 6.7 81 1.4 SSW 13 17 7 9 1022.6 1022.6 0.0
01/05:30am 9.5 6.4 7.2 85 1.1 SSW 13 15 7 8 1022.4 - 0.0
01/05:00am 9.4 6.3 7.3 87 1.0 SSW 13 15 7 8 1022.3 - 0.0
01/04:30am 9.3 7.1 7.8 90 0.7 SSW 9 13 5 7 1022.2 - 0.0
01/04:00am 9.8 7.8 8.6 92 0.6 SSW 9 11 5 6 1022.1 - 0.0
01/03:30am 10.7 8.4 9.1 90 0.8 SSW 11 15 6 8 1022.0 - 0.0
01/03:00am 10.6 8.0 9.4 92 0.6 SSW 13 15 7 8 1022.2 1022.2 0.0
01/02:30am 10.9 8.9 10.3 96 0.3 SSW 11 11 6 6 1022.4 - 0.0
01/02:00am 11.4 9.5 10.4 94 0.5 SSW 11 11 6 6 1022.5 - 0.0
01/01:30am 10.3 8.6 9.7 96 0.3 SSW 9 11 5 6 1022.6 - 0.0
01/01:00am 10.5 9.4 10.1 97 0.2 S 6 9 3 5 1022.7 - 0.0
01/12:30am 11.6 10.1 10.6 94 0.5 SE 9 11 5 6 1022.7 - 0.0
01/12:00am 12.9 12.3 12.3 96 0.3 ESE 7 9 4 5 1022.7 1022.7 0.0
 
Date/Time
EST
Temp
°C
App
Temp
°C
Dew
Point
Rel
Hum
%
Delta-T
°C
Wind Press
QNH
hPa
Press
MSL
hPa
Rain
since 9 am
mm
Dir
 
Spd
km/h
Gust
km/h
Spd
kts
Gust
kts
31/11:30pm 12.3 12.8 11.7 96 0.3 CALM 0 0 0 0 1022.5 - 0.0
31/11:00pm 12.0 12.3 11.0 94 0.5 CALM 0 0 0 0 1022.4 - 0.0
31/10:30pm 13.2 13.8 11.9 92 0.7 CALM 0 0 0 0 1022.5 - 0.0
31/10:00pm 13.4 12.9 12.1 92 0.7 NE 6 7 3 4 1022.5 - 0.0
31/09:30pm 14.4 13.9 12.6 89 1.0 N 7 11 4 6 1022.4 - 0.0
31/09:00pm 14.0 14.7 12.1 88 1.0 CALM 0 0 0 0 1022.3 1022.3 0.0
31/08:30pm 14.4 14.1 13.3 93 0.6 NW 7 15 4 8 1022.1 - 0.0
31/08:00pm 14.9 14.9 13.6 92 0.7 WNW 6 9 3 5 1021.9 - 0.0
31/07:30pm 15.4 14.4 13.4 88 1.1 N 11 24 6 13 1021.4 - 0.0
31/07:00pm 14.8 13.5 12.6 87 1.2 N 11 19 6 10 1021.1 - 0.0
31/06:30pm 15.7 14.0 12.4 81 1.8 N 13 15 7 8 1020.8 - 0.0
31/06:00pm 16.2 14.5 12.6 79 2.0 NNE 13 17 7 9 1020.6 1020.6 0.0
31/05:30pm 16.3 14.8 11.9 75 2.4 NNE 11 15 6 8 1020.5 - 0.0
31/05:00pm 17.7 15.4 11.6 67 3.3 NNE 15 19 8 10 1020.3 - 0.0
31/04:30pm 19.2 16.7 11.1 59 4.4 NNE 15 17 8 9 1020.3 - 0.0
31/04:00pm 20.6 18.1 10.9 53 5.3 NNE 15 19 8 10 1020.3 - 0.0
31/03:30pm 21.1 18.7 9.9 48 6.0 NE 13 19 7 10 1020.0 - 0.0
31/03:00pm 22.9 19.6 6.4 34 8.4 W 13 19 7 10 1020.2 1020.2 0.0
31/02:30pm 22.8 20.1 5.4 32 8.7 W 9 15 5 8 1020.4 - 0.0
31/02:00pm 22.4 17.8 5.6 33 8.4 WSW 19 30 10 16 1020.6 - 0.0
31/01:30pm 22.3 17.6 2.9 28 9.2 SW 17 20 9 11 1020.8 - 0.0
31/01:00pm 22.3 17.0 1.9 26 9.5 W 19 26 10 14 1021.2 - 0.0
31/12:30pm 21.9 16.5 2.2 27 9.2 WSW 20 32 11 17 1021.6 - 0.0
31/12:00pm 21.9 16.8 6.2 36 7.9 WSW 22 35 12 19 1022.3 1022.3 0.0
31/11:30am 22.0 17.1 4.9 32 8.4 W 20 32 11 17 1022.9 - 0.0
31/11:00am 21.1 18.4 9.0 46 6.4 N 13 15 7 8 1023.3 - 0.0
31/10:30am 19.8 18.2 10.3 54 5.1 NW 9 15 5 8 1023.8 - 0.0
31/10:00am 18.1 17.3 11.0 63 3.8 W 6 9 3 5 1024.1 - 0.0
31/09:30am 16.3 15.0 11.3 72 2.7 SSW 9 15 5 8 1024.6 - 0.0
31/09:00am 14.6 13.0 11.4 81 1.7 SSW 11 13 6 7 1024.5 1024.4 0.0
31/08:30am 13.2 11.1 11.1 87 1.1 SSW 13 17 7 9 1024.6 - 0.0
31/08:00am 11.8 9.1 10.4 91 0.7 SSW 15 17 8 9 1024.3 - 0.0
31/07:30am 10.8 8.7 9.8 93 0.5 SSW 11 13 6 7 1023.8 - 0.0
31/07:00am 10.0 8.2 9.4 96 0.3 S 9 11 5 6 1023.8 - 0.0
31/06:30am 8.5 8.1 8.3 99 0.1 CALM 0 0 0 0 1023.2 - 0.0
31/06:12am 8.8 8.5 8.6 99 0.1 CALM 0 0 0 0 1022.8 - 0.0
31/06:00am 8.8 8.4 8.2 96 0.3 CALM 0 0 0 0 1022.8 1022.8 0.0
31/05:30am 9.8 7.6 9.2 96 0.3 WNW 11 11 6 6 1022.3 - 0.0
31/05:04am 9.8 8.6 9.6 99 0.1 W 6 7 3 4 1022.2 - 0.0
31/05:00am 10.1 9.6 9.5 96 0.3 SW 2 7 1 4 1022.2 - 0.0
31/04:30am 10.5 8.8 9.7 95 0.4 SSW 9 11 5 6 1022.3 - 0.0
31/04:00am 10.8 8.4 10.0 95 0.4 SSW 13 15 7 8 1022.9 - 0.0
31/03:30am 10.7 9.0 9.7 93 0.5 S 9 13 5 7 1022.9 - 0.0
31/03:00am 11.1 9.2 10.5 96 0.3 SSW 11 15 6 8 1023.1 1023.1 0.0
31/02:30am 10.6 9.0 10.2 97 0.2 SSW 9 11 5 6 1023.2 - 0.0
31/02:00am 11.1 9.6 10.7 97 0.2 SSW 9 11 5 6 1023.3 - 0.0
31/01:30am 10.4 9.3 9.8 96 0.3 SW 6 7 3 4 1023.2 - 0.0
31/01:00am 11.3 10.5 10.9 97 0.2 SW 6 9 3 5 1023.7 - 0.0
31/12:30am 11.3 10.4 10.7 96 0.3 WSW 6 11 3 6 1023.8 - 0.0
31/12:00am 11.7 12.0 10.9 95 0.4 CALM 0 0 0 0 1024.0 1023.9 0.0
 
Date/Time
EST
Temp
°C
App
Temp
°C
Dew
Point
Rel
Hum
%
Delta-T
°C
Wind Press
QNH
hPa
Press
MSL
hPa
Rain
since 9 am
mm
Dir
 
Spd
km/h
Gust
km/h
Spd
kts
Gust
kts
30/11:30pm 11.9 10.9 11.1 95 0.4 W 7 13 4 7 1024.4 - 0.0
30/11:00pm 12.6 13.1 11.7 94 0.5 CALM 0 0 0 0 1024.7 - 0.0
30/10:30pm 13.2 13.4 11.9 92 0.7 WNW 2 7 1 4 1024.7 - 0.0
30/10:00pm 13.5 13.4 12.2 92 0.7 W 4 7 2 4 1024.8 - 0.0
30/09:30pm 13.3 12.9 12.4 94 0.5 NW 6 13 3 7 1024.8 - 0.0
30/09:00pm 13.3 14.0 12.2 93 0.6 CALM 0 0 0 0 1024.6 1024.5 0.0
30/08:30pm 13.6 13.4 13.1 97 0.3 WNW 6 9 3 5 1025.0 - 0.0
30/08:00pm 14.4 15.3 12.9 91 0.8 CALM 0 0 0 0 1025.0 - 0.0
30/07:30pm 13.5 13.0 12.2 92 0.7 NE 6 7 3 4 1024.7 - 0.0
30/07:00pm 14.5 14.8 12.3 87 1.2 ENE 2 7 1 4 1024.7 - 0.0
30/06:30pm 14.7 15.6 12.9 89 1.0 CALM 0 0 0 0 1024.9 - 0.0
30/06:00pm 15.5 15.3 13.1 85 1.3 ENE 6 7 3 4 1024.8 1024.7 0.0
30/05:30pm 16.0 15.5 12.7 81 1.8 NE 7 9 4 5 1024.6 - 0.0
30/05:00pm 17.3 16.1 12.8 75 2.5 NE 11 13 6 7 1024.2 - 0.0
30/04:30pm 18.5 16.8 12.6 68 3.3 NE 13 17 7 9 1023.8 - 0.0
30/04:00pm 19.3 16.8 12.3 64 3.9 NE 17 20 9 11 1023.9 - 0.0
30/03:30pm 20.0 17.0 10.8 55 5.0 NE 17 22 9 12 1024.0 - 0.0
30/03:00pm 20.0 17.8 10.8 55 5.0 NE 13 19 7 10 1024.3 1024.2 0.0
30/02:30pm 20.3 18.7 11.4 56 4.9 ENE 11 15 6 8 1024.6 - 0.0
30/02:00pm 20.1 18.0 11.3 57 4.8 ENE 13 15 7 8 1024.7 - 0.0
30/01:30pm 19.7 18.0 11.1 57 4.7 NE 11 17 6 9 1025.1 - 0.0
30/01:00pm 19.6 17.8 10.9 57 4.7 ESE 11 15 6 8 1025.6 - 0.0
30/12:30pm 19.7 18.8 11.3 58 4.6 SE 7 15 4 8 1026.0 - 0.0
30/12:00pm 20.3 19.5 11.6 57 4.8 E 7 15 4 8 1026.5 1026.4 0.0
30/11:30am 19.5 17.7 11.0 58 4.6 SSE 11 17 6 9 1027.1 - 0.0
30/11:00am 19.4 17.5 10.4 56 4.8 S 11 15 6 8 1027.5 - 0.0
30/10:30am 18.0 15.3 9.1 56 4.6 S 13 19 7 10 1028.1 - 0.0
30/10:00am 17.4 13.9 8.8 57 4.4 SSW 17 22 9 12 1028.3 - 0.0
30/09:30am 16.4 12.1 7.8 56 4.3 SSW 20 26 11 14 1028.4 - 0.0
30/09:00am 15.3 10.8 7.1 58 4.0 SSW 20 28 11 15 1028.4 1028.3 0.0
30/08:30am 14.2 9.7 7.0 62 3.5 SSW 20 28 11 15 1028.2 - 0.0
30/08:00am 13.2 9.5 7.9 70 2.6 SSW 17 22 9 12 1027.9 - 0.0
30/07:30am 12.0 8.5 7.4 73 2.2 SSW 15 19 8 10 1027.8 - 0.0
30/07:00am 10.1 6.9 6.9 80 1.5 SSW 13 17 7 9 1027.5 - 0.0
30/06:30am 10.7 7.1 6.6 76 1.9 SSW 15 19 8 10 1027.4 - 0.0
30/06:00am 10.0 6.7 6.3 78 1.7 SSW 13 17 7 9 1027.3 1027.2 0.0
30/05:30am 11.4 8.5 6.3 71 2.4 SSW 11 15 6 8 1027.2 - 0.0
30/05:00am 10.0 7.1 6.3 78 1.7 SSW 11 15 6 8 1027.1 - 0.0
30/04:30am 12.1 9.5 5.9 66 2.9 S 9 15 5 8 1027.0 - 0.0
30/04:00am 10.9 7.7 6.9 76 1.9 SSW 13 19 7 10 1027.3 - 0.0
30/03:30am 12.8 9.4 6.0 63 3.2 SSW 13 17 7 9 1027.6 - 0.0
30/03:00am 12.3 8.6 6.3 67 2.8 SSW 15 19 8 10 1027.9 1027.8 0.0
30/02:30am 11.0 8.4 6.0 71 2.3 SSW 9 11 5 6 1028.0 - 0.0
30/02:00am 10.9 8.7 7.8 81 1.5 SW 9 11 5 6 1028.1 - 0.0
30/01:30am 10.3 8.0 7.6 83 1.3 SSW 9 11 5 6 1028.4 - 0.0
30/01:00am 11.6 9.4 7.9 78 1.8 SSW 9 11 5 6 1028.6 - 0.0
30/12:30am 11.8 10.3 9.0 83 1.4 SW 7 9 4 5 1028.8 - 0.0
30/12:00am 11.2 9.2 8.5 83 1.3 SSW 9 11 5 6 1029.3 1029.2 0.0
 
Date/Time
EST
Temp
°C
App
Temp
°C
Dew
Point
Rel
Hum
%
Delta-T
°C
Wind Press
QNH
hPa
Press
MSL
hPa
Rain
since 9 am
mm
Dir
 
Spd
km/h
Gust
km/h
Spd
kts
Gust
kts
29/11:30pm 10.7 8.5 8.0 83 1.3 SW 9 11 5 6 1029.7 - 0.0
29/11:00pm 10.2 7.6 7.9 86 1.1 SW 11 13 6 7 1029.7 - 0.0
29/10:30pm 10.5 8.4 8.2 86 1.1 SSW 9 9 5 5 1029.8 - 0.0
29/10:00pm 10.9 8.7 8.0 82 1.4 SSW 9 11 5 6 1029.7 - 0.0
29/09:30pm 11.5 9.4 8.4 81 1.5 WSW 9 11 5 6 1029.6 - 0.0
29/09:00pm 11.2 9.5 8.5 83 1.3 W 7 9 4 5 1029.6 1029.5 0.0
29/08:30pm 12.3 11.0 9.1 81 1.6 W 6 7 3 4 1029.6 - 0.0
29/08:00pm 12.1 11.5 8.9 81 1.6 S 2 6 1 3 1029.7 - 0.0
29/07:30pm 13.4 13.4 9.7 78 1.9 CALM 0 0 0 0 1029.5 - 0.0
29/07:00pm 14.7 14.0 11.3 80 1.8 ESE 6 9 3 5 1029.2 - 0.0
29/06:30pm 15.5 14.2 11.2 75 2.3 E 9 11 5 6 1029.0 - 0.0
29/06:00pm 15.9 14.4 10.4 70 2.9 E 9 13 5 7 1028.7 1028.6 0.0
29/05:30pm 16.3 14.7 10.2 67 3.2 E 9 13 5 7 1028.5 - 0.0
29/05:00pm 17.3 14.9 8.7 57 4.4 ESE 11 17 6 9 1028.3 - 0.0
29/04:30pm 18.0 14.9 7.4 50 5.3 ESE 13 20 7 11 1028.1 - 0.0
29/04:00pm 18.4 15.0 7.5 49 5.5 E 15 20 8 11 1028.0 - 0.0
29/03:30pm 18.8 15.2 6.7 45 6.0 E 15 24 8 13 1027.9 - 0.0
29/03:00pm 19.0 15.2 5.9 42 6.4 ESE 15 24 8 13 1028.1 1028.0 0.0
29/02:30pm 19.3 15.6 6.1 42 6.5 E 15 24 8 13 1028.3 - 0.0
29/02:00pm 19.2 15.4 5.7 41 6.6 E 15 22 8 12 1028.4 - 0.0
29/01:30pm 20.0 16.8 6.9 42 6.6 ESE 13 19 7 10 1028.7 - 0.0

Other Formats:

Comma delimited format used in spreadsheet applications
http://www.bom.gov.au/fwo/IDQ60801/IDQ60801.94578.axf

JavaScript Object Notation format (JSON) in row-major order
http://www.bom.gov.au/fwo/IDQ60801/IDQ60801.94578.json